M I D A S
Marine Information and Data Acquisition System
Tripno 691 of the Zeeleeuw from 2004-04-29 07:42:40 to 2004-04-29 16:05:36
Back to CruiseResearch ActivitiesStationsMapUnderway DataData graphs

EquipmentUnitsComments
TimeDGPSUTC
LatitudeDGPSDM.mWGS84
LongitudeDGPSDM.mWGS84
SpeedMeteo Stationm/sRelative wind speed
DirectionMeteo StationdegRelative wind direction
TemperatureMeteo Stationdeg CelciusAir temperature
PressureMeteo StationPaAtmospheric pressure
HumidityMeteo Station%Relative humidity
Missing or incorrect values are displayed as -999
Metereological data collected by the RV Zeeleeuw from 2004-04-29 07:42:40 to 2004-04-29 16:05:36
Time Latitude Longitude Speed Direction Temperature Pressure Humidity
2004-04-29 07:43 51°14.273 2°54.262 9.8 3 10.8 100040 96
2004-04-29 07:44 51°14.182 2°53.962 9.8 358 10.8 100040 96
2004-04-29 07:45 51°14.093 2°53.667 9.8 7 10.8 100050 96
2004-04-29 07:46 51°14.003 2°53.365 9.5 2 10.8 100040 96
2004-04-29 07:47 51°13.913 2°53.062 9.6 2 10.8 100040 95
2004-04-29 07:48 51°13.825 2°52.757 9 359 10.8 100040 95
2004-04-29 07:49 51°13.734 2°52.454 9.3 4 10.8 100030 95
2004-04-29 07:50 51°13.639 2°52.155 9.2 2 10.8 100040 95
2004-04-29 07:51 51°13.544 2°51.856 9.1   10.8 100030 95
2004-04-29 07:52 51°13.446 2°51.554 9.1 4 10.8 100030 95
2004-04-29 07:53 51°13.347 2°51.267 9.3 2 10.8 100030 95
2004-04-29 07:54 51°13.249 2°50.972 9.6 4 10.8 100030 95
2004-04-29 07:55 51°13.146 2°50.679 9.1 1 10.8 100030 95
2004-04-29 07:56 51°13.045 2°50.384 9.8 3 10.8 100030 95
2004-04-29 07:57 51°12.943 2°50.088 9.2 1 10.7 100030 95
2004-04-29 07:58 51°12.845 2°49.791 9.7 1 10.8 100030 95
2004-04-29 07:59 51°12.743 2°49.496 9.3 3 10.7 100030 95
2004-04-29 08:00 51°12.645 2°49.195 9.2 8 10.7 100030 95
2004-04-29 08:01 51°12.548 2°48.894 9 6 10.7 100030 95
2004-04-29 08:02 51°12.457 2°48.588 9.6 6 10.7 100030 95
2004-04-29 08:03 51°12.371 2°48.278 9.3 4 10.7 100040 95
2004-04-29 08:04 51°12.285 2°47.967 9.6 5 10.6 100030 95
2004-04-29 08:05 51°12.2 2°47.655 9.3 1 10.6 100030 95
2004-04-29 08:06 51°12.114 2°47.336 9.5 3 10.6 100020 95
2004-04-29 08:07 51°12.03 2°47.028 9.7 4 10.6 100030 95
2004-04-29 08:08 51°11.945 2°46.715 9.1 3 10.6 100040 95
2004-04-29 08:09 51°11.86 2°46.402 9.7 3 10.6 100030 95
2004-04-29 08:10 51°11.776 2°46.086 9.5 1 10.6 100030 95
2004-04-29 08:11 51°11.693 2°45.763 9.1 7 10.6 100030 95
2004-04-29 08:12 51°11.613 2°45.451 9.3 1 10.6 100030 95
2004-04-29 08:13 51°11.533 2°45.134 9.1 2 10.6 100030 95
2004-04-29 08:14 51°11.452 2°44.817 9.5 7 10.6 100040 95
2004-04-29 08:15 51°11.37 2°44.495 9.4 5 10.6 100030 95
2004-04-29 08:16 51°11.294 2°44.196 9.9 3 10.6 100030 95
2004-04-29 08:17 51°11.211 2°43.871 9.2 5 10.6 100030 95
2004-04-29 08:18 51°11.134 2°43.552 9.6 7 10.6 100030 95
2004-04-29 08:19 51°11.057 2°43.234 9.7 4 10.6 100030 95
2004-04-29 08:20 51°10.978 2°42.909 9.2 6 10.6 100030 95
2004-04-29 08:21 51°10.902 2°42.595 10 2 10.6 100030 95
2004-04-29 08:22 51°10.823 2°42.277 9.5 9 10.6 100020 95
2004-04-29 08:23 51°10.742 2°41.958 9.2 8 10.6 100030 95
2004-04-29 08:24 51°10.663 2°41.652 9.5 10 10.5 100030 95
2004-04-29 08:25 51°10.584 2°41.339 9.6 6 10.5 100040 95
2004-04-29 08:26 51°10.507 2°41.018 9.6 4 10.5 100030 95
2004-04-29 08:27 51°10.433 2°40.708 9.7 6 10.5 100040 95
2004-04-29 08:28 51°10.359 2°40.385 9.9 6 10.5 100040 95
2004-04-29 08:29 51°10.283 2°40.074 10.6 8 10.5 100040 95
2004-04-29 08:30 51°10.204 2°39.76 10 6 10.5 100040 95
2004-04-29 08:31 51°10.126 2°39.447 10 6 10.5 100050 95
2004-04-29 08:32 51°10.047 2°39.138 10.1 6 10.4 100050 95
2004-04-29 08:33 51°9.973 2°38.824 10.1 7 10.4 100050 95
2004-04-29 08:34 51°9.899 2°38.51 9.6 9 10.4 100050 95
2004-04-29 08:35 51°9.824 2°38.19 10 9 10.4 100040 95
2004-04-29 08:36 51°9.745 2°37.878 9.9 10 10.3 100040 95
2004-04-29 08:37 51°9.67 2°37.566 10.2 11 10.4 100040 95
2004-04-29 08:38 51°9.588 2°37.26 10.1 8 10.4 100050 95
2004-04-29 08:39 51°9.508 2°36.948 9.4 6 10.3 100040 95
2004-04-29 08:40 51°9.424 2°36.63 9.7 7 10.3 100040 95
2004-04-29 08:41 51°9.345 2°36.321 10 7 10.3 100040 95
2004-04-29 08:42 51°9.263 2°36.007 9.6 6 10.3 100040 95
2004-04-29 08:43 51°9.18 2°35.693 9.4 7 10.3 100050 95
2004-04-29 08:44 51°9.093 2°35.377 9.9 5 10.3 100040 95
2004-04-29 08:45 51°9.027 2°35.134 6.3 13 10.3 100060 95
2004-04-29 08:46 51°8.99 2°35.029 3.9 26 10.3 100060 95
2004-04-29 08:47 51°8.994 2°35.039 2.6 70 10.2 100060 95
2004-04-29 08:48 51°9.001 2°35.056 2.2 76 10.2 100060 95
2004-04-29 08:49 51°9.002 2°35.069 2.1 71 10.2 100060 95
2004-04-29 08:50 51°8.991 2°35.079 3 55 10.2 100060 95
2004-04-29 08:51 51°8.971 2°35.078 3.7 46 10.2 100070 95
2004-04-29 08:52 51°8.947 2°35.058 3.7 31 10.2 100060 95
2004-04-29 08:53 51°8.931 2°35.019 3.7 5 10.2 100060 95
2004-04-29 08:54 51°8.93 2°34.968 3.6 358 10.2 100070 95
2004-04-29 08:55 51°8.941 2°34.918 3.8 352 10.2 100070 95
2004-04-29 08:56 51°8.952 2°34.866 4.2 352 10.2 100070 95
2004-04-29 08:57 51°8.959 2°34.813 4 356 10.2 100070 95
2004-04-29 08:58 51°8.965 2°34.756 3.9 352 10.2 100070 95
2004-04-29 08:59 51°8.97 2°34.694 3.6 3 10.3 100070 95
2004-04-29 09:00 51°8.971 2°34.626 3.8 10 10.3 100070 95
2004-04-29 09:01 51°8.967 2°34.57 3.9 9 10.3 100070 95
2004-04-29 09:02 51°8.96 2°34.513 3.4 13 10.3 100060 95
2004-04-29 09:03 51°8.952 2°34.457 3.9 12 10.2 100070 95
2004-04-29 09:04 51°8.943 2°34.403 3.5 8 10.3 100070 95
2004-04-29 09:05 51°8.932 2°34.349 3.5 12 10.3 100070 95
2004-04-29 09:06 51°8.917 2°34.299 3.3 14 10.3 100070 95
2004-04-29 09:07 51°8.899 2°34.249 3.4 15 10.3 100070 95
2004-04-29 09:08 51°8.88 2°34.201 3.3 17 10.3 100070 95
2004-04-29 09:09 51°8.86 2°34.152 3.5 19 10.3 100070 95
2004-04-29 09:10 51°8.84 2°34.104 3.4 17 10.3 100070 94
2004-04-29 09:11 51°8.822 2°34.054 3.6 21 10.3 100070 94
2004-04-29 09:12 51°8.806 2°34.001 3.1 22 10.3 100060 94
2004-04-29 09:13 51°8.79 2°33.947 3.2 18 10.3 100070 95
2004-04-29 09:14 51°8.772 2°33.894 3.8 24 10.3 100070 95
2004-04-29 09:15 51°8.753 2°33.845 3.4 25 10.2 100070 94
2004-04-29 09:16 51°8.73 2°33.803 3.2 33 10.2 100070 94
2004-04-29 09:17 51°8.71 2°33.782 2.7 39 10.2 100070 94
2004-04-29 09:18 51°8.69 2°33.768 3 30 10.2 100070 94
2004-04-29 09:19 51°8.675 2°33.743 3.1 17 10.2 100070 95
2004-04-29 09:20 51°8.68 2°33.697 3.3 339 10.2 100070 95
2004-04-29 09:21 51°8.718 2°33.669 2.8 301 10.2 100070 95
2004-04-29 09:22 51°8.766 2°33.711 1.2 243 10.2 100070 95
2004-04-29 09:23 51°8.793 2°33.792 0.6 212 10.3 100070 95
2004-04-29 09:24 51°8.813 2°33.869 0.7 153 10.3 100070 95
2004-04-29 09:25 51°8.832 2°33.945 0.7 180 10.3 100070 95
2004-04-29 09:26 51°8.851 2°34.018 0.4 180 10.3 100070 95
2004-04-29 09:27 51°8.869 2°34.096 0.8 171 10.3 100070 95
2004-04-29 09:28 51°8.889 2°34.176 0.7 157 10.3 100070 95
2004-04-29 09:29 51°8.907 2°34.259 0.8 140 10.3 100070 95
2004-04-29 09:30 51°8.925 2°34.342 0.8 140 10.3 100070 95
2004-04-29 09:31 51°8.942 2°34.425 1 140 10.3 100070 95
2004-04-29 09:32 51°8.959 2°34.507 1 159 10.3 100070 95
2004-04-29 09:33 51°8.978 2°34.586 0.9 160 10.3 100070 95
2004-04-29 09:34 51°9 2°34.664 0.8 163 10.3 100070 95
2004-04-29 09:35 51°9.023 2°34.743 0.9 159 10.3 100070 95
2004-04-29 09:36 51°9.044 2°34.823 0.8 152 10.3 100080 95
2004-04-29 09:37 51°9.062 2°34.905 1 158 10.3 100070 95
2004-04-29 09:38 51°9.08 2°34.985 0.7 167 10.3 100080 95
2004-04-29 09:39 51°9.098 2°35.064 0.8 163 10.3 100070 95
2004-04-29 09:40 51°9.114 2°35.143 0.8 161 10.3 100070 95
2004-04-29 09:41 51°9.129 2°35.224 1.1 152 10.3 100070 95
2004-04-29 09:42 51°9.141 2°35.305 1.1 151 10.3 100070 95
2004-04-29 09:43 51°9.151 2°35.386 1.1 148 10.3 100070 95
2004-04-29 09:44 51°9.162 2°35.466 1.1 153 10.3 100070 95
2004-04-29 09:45 51°9.174 2°35.546 1.2 159 10.3 100070 95
2004-04-29 09:46 51°9.186 2°35.625 1.7 159 10.3 100070 95
2004-04-29 09:47 51°9.198 2°35.705 1.8 149 10.3 100070 95
2004-04-29 09:48 51°9.211 2°35.785 1.6 163 10.4 100070 95
2004-04-29 09:49 51°9.229 2°35.864 1.7 166 10.3 100080 95
2004-04-29 09:50 51°9.248 2°35.943 1.7 173 10.3 100080 95
2004-04-29 09:51 51°9.265 2°36.024 2 149 10.3 100070 95
2004-04-29 09:52 51°9.282 2°36.105 1.6 153 10.4 100080 95
2004-04-29 09:53 51°9.296 2°36.183 1.4 157 10.4 100080 95
2004-04-29 09:54 51°9.307 2°36.249 1.5 159 10.4 100080 95
2004-04-29 09:55 51°9.315 2°36.3 2.2 151 10.4 100080 95
2004-04-29 09:56 51°9.323 2°36.344 1.6 156 10.4 100080 95
2004-04-29 09:57 51°9.331 2°36.382 1.3 172 10.4 100080 95
2004-04-29 09:58 51°9.339 2°36.417 1.9 172 10.4 100070 95
2004-04-29 09:59 51°9.373 2°36.482 1.8 306 10.4 100080 95
2004-04-29 10:00 51°9.503 2°36.453 6.7 345 10.4 100070 95
2004-04-29 10:01 51°9.701 2°36.301 7.9 348 10.5 100070 95
2004-04-29 10:02 51°9.907 2°36.142 7.7 347 10.5 100060 95
2004-04-29 10:03 51°10.116 2°35.987 7.2 348 10.4 100060 95
2004-04-29 10:04 51°10.327 2°35.845 6.7 350 10.4 100070 95
2004-04-29 10:05 51°10.555 2°35.828 6.1 350 10.4 100070 95
2004-04-29 10:06 51°10.752 2°36.02 5.4 358 10.4 100070 95
2004-04-29 10:07 51°10.917 2°36.274 5.4 1 10.4 100070 95
2004-04-29 10:08 51°11.07 2°36.55 5.7 352 10.4 100070 95
2004-04-29 10:09 51°11.217 2°36.818 5.6 357 10.4 100080 95
2004-04-29 10:10 51°11.375 2°37.106 5.1 359 10.4 100070 95
2004-04-29 10:11 51°11.528 2°37.386 5.7 354 10.3 100070 95
2004-04-29 10:12 51°11.683 2°37.665 5.3 358 10.3 100070 95
2004-04-29 10:13 51°11.837 2°37.943 4.9 358 10.3 100080 95
2004-04-29 10:14 51°11.992 2°38.22 5.3 356 10.3 100080 95
2004-04-29 10:15 51°12.149 2°38.497 5.2 353 10.3 100070 95
2004-04-29 10:16 51°12.306 2°38.775 5.4 350 10.3 100090 95
2004-04-29 10:17 51°12.462 2°39.052 4.6 351 10.3 100080 95
2004-04-29 10:18 51°12.616 2°39.329 5.1 350 10.3 100080 95
2004-04-29 10:19 51°12.763 2°39.616 4.7 355 10.3 100090 95
2004-04-29 10:20 51°12.913 2°39.9 4.4 346 10.3 100080 95
2004-04-29 10:21 51°13.073 2°40.17 4.6 353 10.3 100080 95
2004-04-29 10:22 51°13.226 2°40.452 4.5 348 10.3 100080 95
2004-04-29 10:23 51°13.374 2°40.738 4.7 354 10.3 100080 95
2004-04-29 10:24 51°13.521 2°41.03 4.5 351 10.4 100080 95
2004-04-29 10:25 51°13.667 2°41.324 4.5 349 10.4 100090 95
2004-04-29 10:26 51°13.813 2°41.614 3.5 344 10.4 100090 95
2004-04-29 10:27 51°13.918 2°41.824 1.8 336 10.4 100090 95
2004-04-29 10:28 51°13.991 2°41.942 2.1 279 10.4 100090 95
2004-04-29 10:29 51°14.037 2°41.977 2.5 264 10.4 100090 95
2004-04-29 10:30 51°14.083 2°42.012 2.3 267 10.4 100090 95
2004-04-29 10:31 51°14.124 2°42.069 1.3 242 10.5 100080 95
2004-04-29 10:32 51°14.16 2°42.131 1.5 249 10.4 100080 95
2004-04-29 10:33 51°14.202 2°42.199 1.3 246 10.4 100080 95
2004-04-29 10:34 51°14.24 2°42.271 1.7 243 10.5 100080 95
2004-04-29 10:35 51°14.274 2°42.338 1.9 243 10.5 100090 95
2004-04-29 10:36 51°14.306 2°42.405 1.8 227 10.5 100080 95
2004-04-29 10:37 51°14.337 2°42.47 2 233 10.5 100090 95
2004-04-29 10:38 51°14.368 2°42.537 1.6 247 10.5 100080 95
2004-04-29 10:39 51°14.398 2°42.604 2.4 244 10.5 100090 95
2004-04-29 10:40 51°14.429 2°42.672 2.1 242 10.6 100090 95
2004-04-29 10:41 51°14.458 2°42.74 1.7 245 10.5 100080 95
2004-04-29 10:42 51°14.487 2°42.812 2.4 233 10.6 100080 95
2004-04-29 10:43 51°14.514 2°42.885 2.3 236 10.5 100080 95
2004-04-29 10:44 51°14.538 2°42.96 2.3 231 10.5 100090 95
2004-04-29 10:45 51°14.561 2°43.036 2.1 242 10.5 100080 95
2004-04-29 10:46 51°14.584 2°43.107 2.5 226 10.6 100090 95
2004-04-29 10:47 51°14.61 2°43.179 2.7 228 10.6 100080 95
2004-04-29 10:48 51°14.637 2°43.25 2.7 236 10.5 100080 95
2004-04-29 10:49 51°14.663 2°43.322 2.7 235 10.6 100090 95
2004-04-29 10:50 51°14.689 2°43.393 1.8 250 10.5 100090 95
2004-04-29 10:51 51°14.713 2°43.466 2.4 220 10.5 100090 95
2004-04-29 10:52 51°14.736 2°43.537 2.5 230 10.5 100080 95
2004-04-29 10:53 51°14.76 2°43.606 1.9 246 10.5 100080 95
2004-04-29 10:54 51°14.786 2°43.677 2.7 232 10.5 100090 95
2004-04-29 10:55 51°14.81 2°43.748 2.4 229 10.5 100080 95
2004-04-29 10:56 51°14.834 2°43.818 2.8 232 10.5 100080 95
2004-04-29 10:57 51°14.858 2°43.89 2.5 238 10.5 100090 95
2004-04-29 10:58 51°14.883 2°43.959 3 236 10.5 100080 95
2004-04-29 10:59 51°14.908 2°44.029 2.4 243 10.4 100090 95
2004-04-29 11:00 51°14.932 2°44.099 3.1 243 10.4 100090 95
2004-04-29 11:01 51°14.955 2°44.169 2.5 238 10.4 100080 95
2004-04-29 11:02 51°14.978 2°44.237 3.1 239 10.4 100080 95
2004-04-29 11:03 51°14.997 2°44.307 2.6 211 10.4 100080 95
2004-04-29 11:04 51°15.001 2°44.355 2.9 173 10.4 100080 95
2004-04-29 11:05 51°15.001 2°44.366 3.9 176 10.5 100080 95
2004-04-29 11:06 51°14.986 2°44.4 3 114 10.5 100080 95
2004-04-29 11:07 51°14.933 2°44.426 4.3 85 10.5 100080 95
2004-04-29 11:08 51°14.891 2°44.41 4.7 64 10.5 100080 95
2004-04-29 11:09 51°14.859 2°44.372 4.7 49 10.4 100080 95
2004-04-29 11:10 51°14.828 2°44.317 5.3 38 10.4 100070 95
2004-04-29 11:11 51°14.805 2°44.25 5.4 29 10.4 100070 95
2004-04-29 11:12 51°14.785 2°44.183 5.3 39 10.3 100070 95
2004-04-29 11:13 51°14.76 2°44.118 5.4 43 10.3 100070 95
2004-04-29 11:14 51°14.732 2°44.055 4.7 41 10.3 100070 95
2004-04-29 11:15 51°14.706 2°43.989 4.8 33 10.2 100070 95
2004-04-29 11:16 51°14.681 2°43.922 5.2 41 10.2 100070 95
2004-04-29 11:17 51°14.656 2°43.854 4.8 39 10.3 100070 95
2004-04-29 11:18 51°14.631 2°43.787 5 35 10.2 100070 95
2004-04-29 11:19 51°14.605 2°43.722 5.3 35 10.3 100070 95
2004-04-29 11:20 51°14.579 2°43.656 4.7 33 10.2 100070 95
2004-04-29 11:21 51°14.552 2°43.589 5.2 39 10.2 100080 95
2004-04-29 11:22 51°14.527 2°43.522 4.9 37 10.3 100080 95
2004-04-29 11:23 51°14.502 2°43.454 5 37 10.3 100080 95
2004-04-29 11:24 51°14.476 2°43.387 5.6 41 10.2 100080 95
2004-04-29 11:25 51°14.449 2°43.32 5.5 35 10.3 100080 95
2004-04-29 11:26 51°14.423 2°43.253 5.3 34 10.2 100080 95
2004-04-29 11:27 51°14.397 2°43.186 5 42 10.2 100080 95
2004-04-29 11:28 51°14.37 2°43.118 4.7 39 10.2 100080 95
2004-04-29 11:29 51°14.343 2°43.052 4.5 35 10.2 100070 95
2004-04-29 11:30 51°14.316 2°42.979 4.2 32 10.2 100070 95
2004-04-29 11:31 51°14.29 2°42.909 4 32 10.2 100070 95
2004-04-29 11:32 51°14.263 2°42.837 4.4 33 10.2 100080 95
2004-04-29 11:33 51°14.236 2°42.766 5.2 42 10.3 100080 95
2004-04-29 11:34 51°14.208 2°42.698 5.1 43 10.3 100080 95
2004-04-29 11:35 51°14.18 2°42.627 5.1 37 10.3 100070 95
2004-04-29 11:36 51°14.154 2°42.555 4.5 40 10.3 100080 95
2004-04-29 11:37 51°14.127 2°42.483 4.6 37 10.3 100080 95
2004-04-29 11:38 51°14.1 2°42.41 4.6 39 10.3 100080 95
2004-04-29 11:39 51°14.073 2°42.338 4.3 39 10.3 100080 95
2004-04-29 11:40 51°14.054 2°42.271 3.7 27 10.3 100080 95
2004-04-29 11:41 51°14.044 2°42.219 3.5 29 10.4 100080 95
2004-04-29 11:42 51°14.038 2°42.175 3.2 24 10.4 100080 95
2004-04-29 11:43 51°14.037 2°42.057 5.5 17 10.4 100080 95
2004-04-29 11:44 51°13.955 2°41.955 3.7 62 10.4 100080 95
2004-04-29 11:45 51°13.89 2°42.093 2.4 335 10.4 100100 95
2004-04-29 11:46 51°13.986 2°42.184 6 346 10.4 100090 95
2004-04-29 11:47 51°14.111 2°41.975 9.2   10.4 100080 95
2004-04-29 11:48 51°14.215 2°41.648 9.2 4 10.4 100080 94
2004-04-29 11:49 51°14.319 2°41.318 8.9 6 10.4 100070 94
2004-04-29 11:50 51°14.428 2°40.994 9.9 3 10.4 100080 94
2004-04-29 11:51 51°14.552 2°40.682 10.4 359 10.4 100080 94
2004-04-29 11:52 51°14.676 2°40.373 10.5 359 10.4 100080 94
2004-04-29 11:53 51°14.799 2°40.061 11 359 10.4 100080 94
2004-04-29 11:54 51°14.94 2°39.77 10.3 357 10.4 100080 94
2004-04-29 11:55 51°15.074 2°39.472 10.4 2 10.4 100080 94
2004-04-29 11:56 51°15.165 2°39.13 9.5 5 10.4 100090 94
2004-04-29 11:57 51°15.265 2°38.795 9.8 359 10.4 100080 94
2004-04-29 11:58 51°15.394 2°38.486 10.2 2 10.4 100080 94
2004-04-29 11:59 51°15.507 2°38.16 10.9 1 10.3 100080 94
2004-04-29 12:00 51°15.622 2°37.834 10.6 2 10.3 100090 94
2004-04-29 12:01 51°15.738 2°37.505 11.1   10.3 100080 94
2004-04-29 12:02 51°15.863 2°37.184 10.2 359 10.3 100080 94
2004-04-29 12:03 51°16.04 2°36.969 9.1 348 10.3 100080 94
2004-04-29 12:04 51°16.261 2°36.903 8.4 348 10.3 100090 94
2004-04-29 12:05 51°16.432 2°36.85 5.8 339 10.3 100090 94
2004-04-29 12:06 51°16.535 2°36.836 3.9 323 10.3 100110 94
2004-04-29 12:07 51°16.593 2°36.811 3.2 315 10.3 100110 94
2004-04-29 12:08 51°16.593 2°36.8 2.6 284 10.4 100110 94
2004-04-29 12:09 51°16.606 2°36.79 2.7 298 10.4 100110 94
2004-04-29 12:10 51°16.653 2°36.804 2.5 307 10.4 100110 94
2004-04-29 12:11 51°16.698 2°36.831 2.5 299 10.3 100110 94
2004-04-29 12:12 51°16.737 2°36.865 2.2 283 10.3 100110 94
2004-04-29 12:13 51°16.776 2°36.903 2.6 296 10.4 100120 94
2004-04-29 12:15 51°16.817 2°36.94 2 293 10.4 100110 94
2004-04-29 12:16 51°16.857 2°36.978 2 300 10.4 100110 94
2004-04-29 12:17 51°16.897 2°37.016 2.3 292 10.4 100110 94
2004-04-29 12:18 51°16.94 2°37.055 2 291 10.4 100110 94
2004-04-29 12:19 51°16.981 2°37.093 2.3 302 10.4 100110 94
2004-04-29 12:20 51°17.021 2°37.128 2.2 293 10.4 100110 94
2004-04-29 12:21 51°17.061 2°37.169 2 300 10.4 100110 94
2004-04-29 12:22 51°17.105 2°37.214 1.9 298 10.4 100110 94
2004-04-29 12:23 51°17.144 2°37.254 2.4 299 10.4 100110 93
2004-04-29 12:24 51°17.18 2°37.289 2.7 306 10.4 100110 93
2004-04-29 12:25 51°17.22 2°37.331 1.9 314 10.4 100110 93
2004-04-29 12:26 51°17.26 2°37.369 2.5 309 10.4 100110 93
2004-04-29 12:27 51°17.298 2°37.406 2.3 310 10.4 100110 93
2004-04-29 12:28 51°17.34 2°37.451 2 307 10.4 100110 93
2004-04-29 12:29 51°17.378 2°37.49 2.1 311 10.4 100110 93
2004-04-29 12:30 51°17.417 2°37.529 2.1 320 10.5 100110 93
2004-04-29 12:31 51°17.457 2°37.568 2 315 10.5 100110 93
2004-04-29 12:32 51°17.496 2°37.606 1.8 305 10.5 100110 93
2004-04-29 12:33 51°17.534 2°37.646 1.9 302 10.5 100110 93
2004-04-29 12:34 51°17.572 2°37.686 1.9 301 10.5 100110 93
2004-04-29 12:35 51°17.61 2°37.725 2.1 227 10.5 100110 93
2004-04-29 12:36 51°17.648 2°37.765 2 306 10.5 100110 93
2004-04-29 12:37 51°17.685 2°37.806 2 312 10.6 100120 93
2004-04-29 12:38 51°17.723 2°37.847 1.6 313 10.6 100120 93
2004-04-29 12:39 51°17.761 2°37.887 1.5 315 10.6 100120 93
2004-04-29 12:40 51°17.798 2°37.927 1.5 312 10.6 100120 93
2004-04-29 12:41 51°17.837 2°37.968 1.7 310 10.7 100120 93
2004-04-29 12:42 51°17.875 2°38.007 1 305 10.7 100120 93
2004-04-29 12:43 51°17.912 2°38.046 1.4 293 10.7 100120 92
2004-04-29 12:44 51°17.953 2°38.091 1.9 305 10.7 100120 92
2004-04-29 12:45 51°17.988 2°38.129 1.6 304 10.8 100120 92
2004-04-29 12:46 51°18.019 2°38.171 1.2 267 10.8 100120 92
2004-04-29 12:47 51°18.039 2°38.212 1.2 268 10.8 100120 92
2004-04-29 12:48 51°18.052 2°38.241 1.2 266 10.9 100120 92
2004-04-29 12:49 51°18.074 2°38.318 1.5 331 11 100120 92
2004-04-29 12:50 51°18.081 2°38.578 4.7 359 11 100110 91
2004-04-29 12:51 51°18.072 2°38.927 4.8 360 11 100120 90
2004-04-29 12:52 51°18.055 2°39.279 4.9 6 11 100120 90
2004-04-29 12:53 51°18.04 2°39.63 5.2 1 11 100120 90
2004-04-29 12:54 51°18.03 2°39.986 4.6 3 11 100120 90
2004-04-29 12:55 51°18.018 2°40.335 4.9 1 11 100110 90
2004-04-29 12:56 51°18.013 2°40.682 5.2 2 11 100110 89
2004-04-29 12:57 51°18.009 2°41.046 5.1 359 10.9 100120 89
2004-04-29 12:58 51°18.004 2°41.432 5.2 4 10.9 100120 89
2004-04-29 12:59 51°18.001 2°41.784 4.5 2 10.9 100120 89
2004-04-29 13:00 51°18 2°42.135 4.8 2 10.9 100120 89
2004-04-29 13:01 51°18.001 2°42.47 5.6 4 10.9 100120 89
2004-04-29 13:02 51°18.001 2°42.846 6.2 1 10.9 100120 89
2004-04-29 13:03 51°18.005 2°43.198 5.8 4 10.9 100120 89
2004-04-29 13:04 51°18.003 2°43.574 6.2 3 10.9 100110 89
2004-04-29 13:05 51°18.003 2°43.917 5.7 9 10.9 100110 89
2004-04-29 13:06 51°18.003 2°44.264 6.2 6 10.9 100110 89
2004-04-29 13:07 51°18.003 2°44.63 4.6 1 10.9 100110 89
2004-04-29 13:08 51°18.003 2°44.876 1.7 351 10.9 100110 89
2004-04-29 13:09 51°18.01 2°45.002 0.9 284 11 100110 90
2004-04-29 13:10 51°18.003 2°45.034 2.3 161 11 100110 90
2004-04-29 13:11 51°17.997 2°45.026 2 163 11.1 100110 89
2004-04-29 13:12 51°17.987 2°45.023 1 141 11.1 100110 89
2004-04-29 13:13 51°17.922 2°45.067 1.7 83 11 100110 89
2004-04-29 13:14 51°17.864 2°45.075 1.7 82 11 100110 89
2004-04-29 13:15 51°17.811 2°45.061 1.9 73 11 100110 89
2004-04-29 13:16 51°17.759 2°45.028 2.6 58 10.9 100110 89
2004-04-29 13:17 51°17.711 2°44.98 2.6 50 10.9 100110 89
2004-04-29 13:18 51°17.669 2°44.929 2.4 54 10.9 100100 89
2004-04-29 13:19 51°17.624 2°44.877 2.2 57 10.8 100110 90
2004-04-29 13:21 51°17.575 2°44.823 2.5 60 10.8 100110 90
2004-04-29 13:22 51°17.529 2°44.775 2.4 44 10.8 100110 90
2004-04-29 13:23 51°17.484 2°44.727 2.2 53 10.9 100110 90
2004-04-29 13:24 51°17.438 2°44.679 2.4 48 10.8 100110 90
2004-04-29 13:25 51°17.393 2°44.63 2.4 42 10.8 100110 90
2004-04-29 13:26 51°17.348 2°44.581 2.1 53 10.8 100110 90
2004-04-29 13:27 51°17.303 2°44.532 2 53 10.8 100110 90
2004-04-29 13:28 51°17.257 2°44.482 2.1 52 10.7 100100 90
2004-04-29 13:29 51°17.212 2°44.433 1.9 37 10.7 100100 90
2004-04-29 13:30 51°17.166 2°44.385 1.9 34 10.8 100100 90
2004-04-29 13:31 51°17.12 2°44.336 2 34 10.8 100100 90
2004-04-29 13:32 51°17.075 2°44.286 2.1 37 10.8 100100 90
2004-04-29 13:33 51°17.028 2°44.238 2.4 54 10.8 100100 90
2004-04-29 13:34 51°16.982 2°44.192 2.3 46 10.8 100100 90
2004-04-29 13:35 51°16.936 2°44.143 2.3 49 10.8 100100 90
2004-04-29 13:36 51°16.89 2°44.095 2.3 45 10.8 100100 90
2004-04-29 13:37 51°16.845 2°44.047 2.6 51 10.8 100100 90
2004-04-29 13:38 51°16.8 2°43.997 2.5 56 10.8 100100 90
2004-04-29 13:39 51°16.754 2°43.949 2.6 59 10.8 100100 90
2004-04-29 13:40 51°16.707 2°43.902 2.6 58 10.8 100100 90
2004-04-29 13:41 51°16.661 2°43.855 2.8 60 10.8 100100 90
2004-04-29 13:42 51°16.614 2°43.808 2.8 63 10.8 100100 90
2004-04-29 13:43 51°16.568 2°43.758 2.6 65 10.8 100100 90
2004-04-29 13:44 51°16.523 2°43.708 2.7 65 10.8 100110 91
2004-04-29 13:45 51°16.48 2°43.657 2.5 59 10.8 100100 91
2004-04-29 13:46 51°16.446 2°43.608 2.7 63 10.8 100100 91
2004-04-29 13:47 51°16.417 2°43.563 2.5 63 10.8 100100 91
2004-04-29 13:48 51°16.392 2°43.522 2.6 67 10.8 100100 91
2004-04-29 13:49 51°16.36 2°43.469 3.1 55 10.8 100110 91
2004-04-29 13:50 51°16.285 2°43.427 2.2 68 10.8 100110 91
2004-04-29 13:51 51°16.206 2°43.502 2.1 22 10.9 100110 91
2004-04-29 13:52 51°16.085 2°43.754 4.6 11 10.9 100100 91
2004-04-29 13:53 51°15.944 2°44.037 4.8 7 10.9 100100 91
2004-04-29 13:54 51°15.807 2°44.327 5.2 2 11 100110 91
2004-04-29 13:55 51°15.653 2°44.633 5.3 356 11 100110 90
2004-04-29 13:56 51°15.515 2°44.921 6.2 357 11 100110 90
2004-04-29 13:57 51°15.375 2°45.205 6.2 1 11.1 100110 90
2004-04-29 13:58 51°15.226 2°45.512 5.8 359 11.1 100100 90
2004-04-29 13:59 51°15.089 2°45.795 5.2 359 11.2 100100 90
2004-04-29 14:00 51°14.954 2°46.074 5.2 3 11.2 100100 89
2004-04-29 14:01 51°14.826 2°46.34 4.7 3 11.3 100110 89
2004-04-29 14:02 51°14.676 2°46.641 5.7 1 11.3 100100 89
2004-04-29 14:03 51°14.531 2°46.939 4.9 3 11.4 100090 89
2004-04-29 14:04 51°14.393 2°47.222 4.5 4 11.4 100090 89
2004-04-29 14:05 51°14.259 2°47.501 4.3 2 11.5 100090 88
2004-04-29 14:06 51°14.132 2°47.749 2.1 358 11.5 100090 88
2004-04-29 14:07 51°14.04 2°47.89 0.3 3 11.6 100090 88
2004-04-29 14:08 51°13.976 2°47.935 1.2 166 11.8 100090 88
2004-04-29 14:09 51°13.953 2°47.935 3.1 214 11.8 100080 88
2004-04-29 14:10 51°13.941 2°47.935 3.9 268 11.8 100080 87
2004-04-29 14:11 51°13.948 2°47.977 3.1 290 11.8 100080 87
2004-04-29 14:12 51°13.96 2°48.039 3.4 280 11.8 100080 87
2004-04-29 14:13 51°13.967 2°48.1 4.1 273 11.8 100080 86
2004-04-29 14:14 51°13.975 2°48.16 3.7 280 11.8 100070 86
2004-04-29 14:15 51°13.988 2°48.215 3.4 291 11.9 100080 86
2004-04-29 14:16 51°14.004 2°48.272 2.6 297 11.9 100080 86
2004-04-29 14:17 51°14.018 2°48.331 3.2 291 11.9 100080 86
2004-04-29 14:18 51°14.031 2°48.39 3.5 295 11.9 100080 86
2004-04-29 14:19 51°14.046 2°48.452 3.6 294 11.9 100080 86
2004-04-29 14:20 51°14.06 2°48.511 4 292 12 100090 85
2004-04-29 14:21 51°14.074 2°48.572 3.7 290 11.9 100080 85
2004-04-29 14:22 51°14.09 2°48.635 3.6 303 12 100090 85
2004-04-29 14:23 51°14.105 2°48.693 4.1 296 12 100090 85
2004-04-29 14:24 51°14.119 2°48.754 3.8 298 11.9 100080 85
2004-04-29 14:25 51°14.132 2°48.81 3.3 299 11.9 100090 85
2004-04-29 14:26 51°14.148 2°48.875 3.2 304 11.9 100090 85
2004-04-29 14:27 51°14.162 2°48.933 3.5 292 11.9 100090 85
2004-04-29 14:28 51°14.175 2°48.988 4.6 291 11.9 100090 85
2004-04-29 14:29 51°14.189 2°49.047 3.7 287 11.9 100100 85
2004-04-29 14:30 51°14.203 2°49.104 4.4 289 11.9 100090 85
2004-04-29 14:31 51°14.217 2°49.161 3.9 288 11.9 100100 85
2004-04-29 14:32 51°14.231 2°49.217 4.8 287 11.9 100100 85
2004-04-29 14:33 51°14.245 2°49.278 4 281 11.8 100090 85
2004-04-29 14:34 51°14.259 2°49.337 5.1 282 11.7 100090 85
2004-04-29 14:35 51°14.273 2°49.394 4.6 279 11.6 100090 85
2004-04-29 14:36 51°14.287 2°49.449 4.6 280 11.6 100100 85
2004-04-29 14:37 51°14.302 2°49.507 4.7 279 11.6 100090 86
2004-04-29 14:38 51°14.316 2°49.562 4.2 283 11.5 100090 86
2004-04-29 14:39 51°14.331 2°49.618 4.2 279 11.5 100090 86
2004-04-29 14:40 51°14.345 2°49.677 4.7 274 11.5 100090 87
2004-04-29 14:41 51°14.357 2°49.736 3.9 285 11.4 100090 87
2004-04-29 14:42 51°14.371 2°49.793 4.6 280 11.4 100100 87
2004-04-29 14:43 51°14.381 2°49.844 4.2 268 11.4 100100 87
2004-04-29 14:45 51°14.384 2°49.872 4.4 262 11.4 100100 88
2004-04-29 14:46 51°14.386 2°49.888 4.1 267 11.4 100110 88
2004-04-29 14:47 51°14.381 2°49.931 2.1 206 11.4 100110 88
2004-04-29 14:48 51°14.326 2°49.955 3.6 110 11.4 100110 88
2004-04-29 14:49 51°14.271 2°49.892 3.9 74 11.4 100110 88
2004-04-29 14:49 51°14.239 2°49.819 4.5 68 11.4 100110 88
2004-04-29 14:50 51°14.212 2°49.734 4.5 56 11.3 100100 88
2004-04-29 14:52 51°14.191 2°49.636 4.2 47 11.2 100100 89
2004-04-29 14:53 51°14.174 2°49.54 4.8 51 11.2 100100 89
2004-04-29 14:54 51°14.153 2°49.447 5.1 60 11.1 100100 89
2004-04-29 14:55 51°14.128 2°49.358 4.7 65 11.1 100110 89
2004-04-29 14:55 51°14.101 2°49.272 4.3 70 11.1 100100 89
2004-04-29 14:57 51°14.072 2°49.18 4.2 73 11.1 100100 90
2004-04-29 14:58 51°14.046 2°49.089 3.6 73 11.1 100100 90
2004-04-29 14:58 51°14.02 2°49 3.6 76 11.1 100100 90
2004-04-29 15:00 51°13.994 2°48.907 3.5 78 11.1 100100 90
2004-04-29 15:00 51°13.968 2°48.818 4.2 82 11 100100 90
2004-04-29 15:02 51°13.94 2°48.726 4.8 84 11.1 100100 90
2004-04-29 15:03 51°13.913 2°48.635 4.2 84 11.1 100090 91
2004-04-29 15:04 51°13.887 2°48.543 3.5 81 11.1 100100 90
2004-04-29 15:05 51°13.86 2°48.451 4 90 11.1 100100 90
2004-04-29 15:06 51°13.833 2°48.358 4.6 82 11.1 100090 91
2004-04-29 15:07 51°13.807 2°48.266 4.8 84 11.1 100090 91
2004-04-29 15:08 51°13.781 2°48.175 5.3 88 11.2 100090 91
2004-04-29 15:09 51°13.755 2°48.084 4.8 85 11.2 100090 91
2004-04-29 15:10 51°13.73 2°47.993 4.2 86 11.1 100100 91
2004-04-29 15:11 51°13.703 2°47.904 4.7 87 11.1 100100 91
2004-04-29 15:12 51°13.676 2°47.814 4.4 92 11.1 100100 91
2004-04-29 15:13 51°13.65 2°47.724 4.2 90 11.1 100090 91
2004-04-29 15:14 51°13.623 2°47.634 4.5 92 11.1 100090 91
2004-04-29 15:15 51°13.598 2°47.544 4.1 91 11.1 100090 91
2004-04-29 15:16 51°13.581 2°47.452 4.1 74 11.1 100100 91
2004-04-29 15:16 51°13.582 2°47.361 4.5 48 11.1 100100 91
2004-04-29 15:17 51°13.602 2°47.283 5.3 28 11 100090 91
2004-04-29 15:18 51°13.635 2°47.239 5.1 3 11.1 100100 91
2004-04-29 15:20 51°13.668 2°47.24 5.1 335 11.2 100100 91
2004-04-29 15:20 51°13.687 2°47.277 4.6 328 11.2 100100 91
2004-04-29 15:22 51°13.699 2°47.324 4.9 325 11.3 100100 90
2004-04-29 15:22 51°13.708 2°47.355 4.7 325 11.3 100100 90
2004-04-29 15:24 51°13.711 2°47.37 4.2 320 11.4 100090 90
2004-04-29 15:25 51°13.724 2°47.415 6 324 11.4 100080 90
2004-04-29 15:26 51°13.739 2°47.484 4.4 314 11.5 100090 89
2004-04-29 15:27 51°13.748 2°47.526 5.3 311 11.5 100090 89
2004-04-29 15:28 51°13.755 2°47.551 4.9 310 11.5 100080 89
2004-04-29 15:29 51°13.789 2°47.704 7.7 328 11.5 100080 89
2004-04-29 15:30 51°13.851 2°48.003 8.6 333 11.5 100070 88
2004-04-29 15:31 51°13.905 2°48.321 8.3 331 11.5 100070 88
2004-04-29 15:31 51°13.961 2°48.634 8.2 334 11.4 100070 88
2004-04-29 15:33 51°14.012 2°48.96 8.4 333 11.5 100070 88
2004-04-29 15:34 51°14.06 2°49.281 8.3 329 11.4 100070 88
2004-04-29 15:35 51°14.104 2°49.604 9.1 329 11.4 100070 88
2004-04-29 15:36 51°14.152 2°49.927 8.2 335 11.4 100080 88
2004-04-29 15:37 51°14.197 2°50.25 8.8 335 11.4 100080 88
2004-04-29 15:38 51°14.235 2°50.576 9.1 340 11.4 100080 88
2004-04-29 15:39 51°14.28 2°50.9 8.7 340 11.5 100070 88
2004-04-29 15:40 51°14.324 2°51.224 8.2 334 11.5 100080 88
2004-04-29 15:41 51°14.369 2°51.549 9.1 333 11.5 100070 88
2004-04-29 15:42 51°14.415 2°51.873 8.9 334 11.5 100080 88
2004-04-29 15:43 51°14.458 2°52.2 9.2 334 11.5 100080 88
2004-04-29 15:44 51°14.498 2°52.53 9 339 11.4 100080 88
2004-04-29 15:45 51°14.533 2°52.862 8.4 336 11.4 100080 88
2004-04-29 15:46 51°14.555 2°53.197 9.1 343 11.4 100090 88
2004-04-29 15:47 51°14.575 2°53.532 9.6 344 11.4 100100 88
2004-04-29 15:48 51°14.587 2°53.876 10 348 11.4 100100 88
2004-04-29 15:49 51°14.569 2°54.221 9.3 341 11.4 100110 88
2004-04-29 15:50 51°14.508 2°54.551 8.9 339 11.4 100110 89
2004-04-29 15:51 51°14.416 2°54.856 7.7 335 11.4 100110 89
2004-04-29 15:52 51°14.321 2°55.138 7.7 343 11.4 100120 89
2004-04-29 15:53 51°14.216 2°55.334 5.8 311 11.5 100120 89
2004-04-29 15:54 51°14.116 2°55.443 3.9 309 11.6 100120 90
2004-04-29 15:55 51°14.006 2°55.518 3.1 309 11.5 100120 90
2004-04-29 15:56 51°13.896 2°55.594 2 270 11.5 100120 90
2004-04-29 15:57 51°13.785 2°55.674 2.8 312 11.5 100120 90
2004-04-29 15:58 51°13.711 2°55.798 3.4 313 11.6 100110 90
2004-04-29 15:59 51°13.663 2°55.905 1.6 303 11.6 100110 90
2004-04-29 16:00 51°13.627 2°55.992 2.6 305 11.7 100110 91
2004-04-29 16:01 51°13.605 2°56.061 5 292 11.8 100110 91
2004-04-29 16:02 51°13.596 2°56.094 3.5 290 11.9 100100 91
2004-04-29 16:03 51°13.596 2°56.095 1.9 275 11.9 100100 91
2004-04-29 16:04 51°13.597 2°56.097 3.2 263 11.9 100100 91
2004-04-29 16:05 51°13.597 2°56.096 4.6 265 11.9 100100 91